Time;durP1;ratioP1;P1;durP2;ratioP2;P2;SDS_P1;SDS_P2;PMS_P1;PMS_P2;Temp;Humidity;BMP_temperature;BMP_pressure;BME280_temperature;BME280_humidity;BME280_pressure;Samples;Min_cycle;Max_cycle;Signal;HPM_P1;HPM_P2
2023/10/31 00:01:42;;;;;;;;;4.33;3.67;;;;;;;;5123768;27;46642;-49
2023/10/31 00:04:07;;;;;;;;;3.00;3.00;;;;;;;;5134767;27;45481;-47
2023/10/31 00:06:32;;;;;;;;;3.00;3.00;;;;;;;;5140361;27;45490;-50
2023/10/31 00:08:57;;;;;;;;;4.67;3.33;;;;;;;;5136637;27;45389;-49
2023/10/31 00:11:22;;;;;;;;;3.00;3.00;;;;;;;;5138902;27;46166;-49
2023/10/31 00:13:48;;;;;;;;;2.67;2.67;;;;;;;;5138562;27;45365;-47
2023/10/31 00:16:13;;;;;;;;;3.00;3.00;;;;;;;;5137346;27;45341;-50
2023/10/31 00:18:38;;;;;;;;;3.67;3.00;;;;;;;;5127579;27;45558;-49
2023/10/31 00:21:05;;;;;;;;;3.33;2.00;;;;;;;;5134804;27;45358;-47
2023/10/31 00:23:30;;;;;;;;;2.00;2.00;;;;;;;;5132610;27;45319;-52
2023/10/31 00:25:55;;;;;;;;;4.00;3.00;;;;;;;;5137350;27;45482;-49
2023/10/31 00:28:21;;;;;;;;;3.00;3.00;;;;;;;;5138601;27;45275;-48
2023/10/31 00:30:46;;;;;;;;;2.67;2.67;;;;;;;;5140603;27;45448;-48
2023/10/31 00:33:11;;;;;;;;;4.00;3.00;;;;;;;;5141321;27;45380;-48
2023/10/31 00:35:37;;;;;;;;;4.33;3.33;;;;;;;;5140680;27;45632;-50
2023/10/31 00:38:02;;;;;;;;;2.00;2.00;;;;;;;;5140918;27;45344;-49
2023/10/31 00:40:27;;;;;;;;;3.67;3.67;;;;;;;;5137893;27;45401;-49
2023/10/31 00:42:53;;;;;;;;;2.00;2.00;;;;;;;;5141017;27;45320;-48
2023/10/31 00:45:18;;;;;;;;;3.67;3.00;;;;;;;;5137011;27;45244;-48
2023/10/31 00:47:44;;;;;;;;;5.00;3.00;;;;;;;;5138422;27;45376;-47
2023/10/31 00:50:09;;;;;;;;;3.00;3.00;;;;;;;;5135686;27;46411;-47
2023/10/31 00:52:34;;;;;;;;;3.00;3.00;;;;;;;;5138622;27;45301;-49
2023/10/31 00:54:59;;;;;;;;;2.67;2.67;;;;;;;;5135297;27;45864;-47
2023/10/31 00:57:25;;;;;;;;;3.33;3.33;;;;;;;;5140157;27;45458;-48
2023/10/31 00:59:50;;;;;;;;;5.00;4.00;;;;;;;;5138017;27;46526;-50
2023/10/31 01:02:15;;;;;;;;;5.00;3.00;;;;;;;;5137415;27;45184;-48
2023/10/31 01:04:40;;;;;;;;;2.00;2.00;;;;;;;;5136406;27;45617;-50
2023/10/31 01:07:05;;;;;;;;;3.00;3.00;;;;;;;;5137663;27;45366;-48
2023/10/31 01:09:30;;;;;;;;;4.00;4.00;;;;;;;;5118570;27;46559;-51
2023/10/31 01:11:56;;;;;;;;;6.00;4.00;;;;;;;;5138156;27;45314;-50
2023/10/31 01:14:21;;;;;;;;;4.33;4.00;;;;;;;;5137279;27;45444;-48
2023/10/31 01:16:46;;;;;;;;;7.33;5.00;;;;;;;;5131696;27;45678;-52
2023/10/31 01:19:11;;;;;;;;;4.00;4.00;;;;;;;;5122032;27;45579;-50
2023/10/31 01:21:36;;;;;;;;;5.67;4.00;;;;;;;;5132846;27;45297;-51
2023/10/31 01:24:02;;;;;;;;;3.00;3.00;;;;;;;;5134578;27;45290;-50
2023/10/31 01:26:27;;;;;;;;;2.33;1.33;;;;;;;;5139883;27;45391;-49
2023/10/31 01:28:52;;;;;;;;;5.00;2.67;;;;;;;;5135671;27;46543;-48
2023/10/31 01:31:17;;;;;;;;;3.00;3.00;;;;;;;;5138488;27;45393;-49
2023/10/31 01:33:43;;;;;;;;;3.00;2.00;;;;;;;;5136432;27;45480;-50
2023/10/31 01:36:10;;;;;;;;;3.67;3.00;;;;;;;;5137116;27;45248;-50
2023/10/31 01:38:35;;;;;;;;;1.00;1.00;;;;;;;;5139527;27;47136;-51
2023/10/31 01:41:00;;;;;;;;;3.00;1.33;;;;;;;;5139888;27;45470;-51
2023/10/31 01:43:32;;;;;;;;;2.33;2.00;;;;;;;;5136958;27;45482;-51
2023/10/31 01:45:57;;;;;;;;;1.00;1.00;;;;;;;;5138310;27;45516;-49
2023/10/31 01:48:23;;;;;;;;;1.00;1.00;;;;;;;;5134025;27;46010;-49
2023/10/31 01:50:49;;;;;;;;;0.00;0.00;;;;;;;;5137946;27;45487;-50
2023/10/31 01:53:14;;;;;;;;;2.67;1.00;;;;;;;;5137674;27;45465;-49
2023/10/31 01:55:39;;;;;;;;;0.00;0.00;;;;;;;;5138462;27;45530;-48
2023/10/31 01:58:05;;;;;;;;;0.67;0.67;;;;;;;;5135365;27;46665;-50
2023/10/31 02:00:30;;;;;;;;;1.00;1.00;;;;;;;;5138550;27;45671;-49
2023/10/31 02:02:56;;;;;;;;;2.00;1.00;;;;;;;;5132201;27;45468;-48
2023/10/31 02:05:21;;;;;;;;;0.67;0.33;;;;;;;;5139752;27;45409;-49
2023/10/31 02:07:47;;;;;;;;;2.00;0.67;;;;;;;;5137718;27;46428;-48
2023/10/31 02:10:12;;;;;;;;;1.00;1.00;;;;;;;;5139894;27;45364;-49
2023/10/31 02:12:37;;;;;;;;;0.00;0.00;;;;;;;;5136724;27;45586;-48
2023/10/31 02:15:03;;;;;;;;;4.00;1.00;;;;;;;;5139474;27;45352;-48
2023/10/31 02:17:28;;;;;;;;;1.00;1.00;;;;;;;;5129667;27;45331;-47
2023/10/31 02:19:54;;;;;;;;;0.00;0.00;;;;;;;;5119457;27;45342;-49
2023/10/31 02:22:19;;;;;;;;;0.00;0.00;;;;;;;;5141318;27;45353;-48
2023/10/31 02:24:44;;;;;;;;;1.33;1.00;;;;;;;;5143483;27;45414;-49
2023/10/31 02:27:09;;;;;;;;;2.00;2.00;;;;;;;;5140722;27;46929;-48
2023/10/31 02:29:34;;;;;;;;;3.00;1.00;;;;;;;;5142856;27;45294;-51
2023/10/31 02:32:00;;;;;;;;;1.33;1.33;;;;;;;;5142340;27;45352;-51
2023/10/31 02:34:26;;;;;;;;;1.00;1.00;;;;;;;;5140561;27;45493;-49
2023/10/31 02:36:51;;;;;;;;;2.00;1.00;;;;;;;;5143164;27;45283;-47
2023/10/31 02:39:16;;;;;;;;;2.67;2.00;;;;;;;;5143225;27;45253;-48
2023/10/31 02:41:41;;;;;;;;;1.67;1.00;;;;;;;;5141211;27;45190;-47
2023/10/31 02:44:07;;;;;;;;;1.00;1.00;;;;;;;;5139629;27;45669;-49
2023/10/31 02:46:37;;;;;;;;;2.00;2.00;;;;;;;;5143070;27;45356;-48
2023/10/31 02:49:02;;;;;;;;;1.00;1.00;;;;;;;;5122945;27;45365;-48
2023/10/31 02:51:27;;;;;;;;;1.33;1.33;;;;;;;;5137030;27;45532;-48
2023/10/31 02:53:52;;;;;;;;;4.33;2.00;;;;;;;;5138829;27;45286;-50
2023/10/31 02:56:18;;;;;;;;;2.00;2.00;;;;;;;;5143171;27;46260;-49
2023/10/31 02:58:43;;;;;;;;;3.00;3.00;;;;;;;;5139762;27;45267;-49
2023/10/31 03:01:09;;;;;;;;;7.33;3.00;;;;;;;;5141562;27;45560;-50
2023/10/31 03:03:34;;;;;;;;;5.33;2.33;;;;;;;;5141456;27;45413;-49
2023/10/31 03:05:59;;;;;;;;;7.00;2.33;;;;;;;;5137279;27;45477;-48
2023/10/31 03:08:24;;;;;;;;;3.33;2.00;;;;;;;;5141106;27;45384;-47
2023/10/31 03:10:50;;;;;;;;;2.67;2.67;;;;;;;;5142802;27;45252;-48
2023/10/31 03:13:16;;;;;;;;;2.33;2.33;;;;;;;;5140127;27;45279;-48
2023/10/31 03:15:41;;;;;;;;;2.00;2.00;;;;;;;;5140596;27;45392;-48
2023/10/31 03:18:06;;;;;;;;;3.00;3.00;;;;;;;;5129619;27;45327;-51
2023/10/31 03:20:32;;;;;;;;;5.00;4.00;;;;;;;;5142697;27;45422;-50
2023/10/31 03:22:57;;;;;;;;;3.33;2.67;;;;;;;;5139946;27;45240;-50
2023/10/31 03:25:22;;;;;;;;;4.00;4.00;;;;;;;;5123766;27;47555;-49
2023/10/31 03:27:47;;;;;;;;;4.33;4.00;;;;;;;;5140302;27;45289;-51
2023/10/31 03:30:12;;;;;;;;;3.67;3.67;;;;;;;;5140931;27;45261;-48
2023/10/31 03:32:38;;;;;;;;;3.67;2.00;;;;;;;;5140396;27;45385;-51
2023/10/31 03:35:03;;;;;;;;;3.00;2.67;;;;;;;;5138936;27;45412;-51
2023/10/31 03:37:28;;;;;;;;;2.00;2.00;;;;;;;;5136043;27;45445;-49
2023/10/31 03:39:53;;;;;;;;;4.00;3.00;;;;;;;;5140593;27;45497;-48
2023/10/31 03:42:18;;;;;;;;;4.00;3.33;;;;;;;;5142013;27;45538;-50
2023/10/31 03:44:44;;;;;;;;;4.00;3.00;;;;;;;;5138956;27;45334;-51
2023/10/31 03:47:10;;;;;;;;;2.67;2.67;;;;;;;;5118021;27;45429;-50
2023/10/31 03:49:39;;;;;;;;;0.00;0.00;;;;;;;;5139283;27;45407;-50
2023/10/31 03:52:04;;;;;;;;;2.33;2.33;;;;;;;;5141742;27;45340;-48
2023/10/31 03:54:30;;;;;;;;;5.00;3.67;;;;;;;;5138904;27;46054;-48
2023/10/31 03:56:55;;;;;;;;;4.67;2.00;;;;;;;;5140411;27;45344;-48
2023/10/31 03:59:20;;;;;;;;;3.00;2.25;;;;;;;;5122493;27;45176;-48
2023/10/31 04:01:45;;;;;;;;;3.67;3.67;;;;;;;;5138548;27;45380;-48
2023/10/31 04:04:10;;;;;;;;;4.67;3.00;;;;;;;;5137462;27;45527;-48
2023/10/31 04:06:39;;;;;;;;;2.00;2.00;;;;;;;;5139589;27;45320;-49
2023/10/31 04:09:04;;;;;;;;;5.00;3.33;;;;;;;;5139652;27;45386;-48
2023/10/31 04:11:29;;;;;;;;;2.67;2.00;;;;;;;;5137610;27;45326;-51
2023/10/31 04:13:55;;;;;;;;;4.67;4.00;;;;;;;;5138479;27;45480;-48
2023/10/31 04:16:20;;;;;;;;;2.67;2.67;;;;;;;;5134548;27;45375;-49
2023/10/31 04:18:45;;;;;;;;;3.00;1.67;;;;;;;;5138022;27;45692;-48
2023/10/31 04:21:10;;;;;;;;;2.67;2.67;;;;;;;;5138448;27;45452;-48
2023/10/31 04:23:35;;;;;;;;;3.00;3.00;;;;;;;;5138557;27;45475;-49
2023/10/31 04:26:01;;;;;;;;;3.67;3.67;;;;;;;;5138245;27;45352;-50
2023/10/31 04:28:26;;;;;;;;;3.33;2.67;;;;;;;;5141116;27;45797;-47
2023/10/31 04:30:51;;;;;;;;;3.00;1.00;;;;;;;;5138956;27;45894;-47
2023/10/31 04:33:16;;;;;;;;;2.33;2.33;;;;;;;;5139153;27;45967;-48
2023/10/31 04:35:41;;;;;;;;;3.33;2.33;;;;;;;;5138638;27;45383;-47
2023/10/31 04:38:07;;;;;;;;;3.00;1.67;;;;;;;;5141477;27;45320;-51
2023/10/31 04:40:32;;;;;;;;;4.00;2.33;;;;;;;;5135289;27;45355;-50
2023/10/31 04:42:57;;;;;;;;;2.00;2.00;;;;;;;;5140450;27;45635;-48
2023/10/31 04:45:22;;;;;;;;;3.00;2.00;;;;;;;;5136068;27;45364;-51
2023/10/31 04:47:47;;;;;;;;;3.00;3.00;;;;;;;;5123055;27;45387;-51
2023/10/31 04:50:12;;;;;;;;;3.00;2.00;;;;;;;;5134925;27;45352;-51
2023/10/31 04:52:38;;;;;;;;;4.33;3.33;;;;;;;;5140439;27;46676;-47
2023/10/31 04:55:03;;;;;;;;;5.00;3.67;;;;;;;;5140413;27;45510;-50
2023/10/31 04:57:28;;;;;;;;;1.00;1.00;;;;;;;;5140035;27;45383;-48
2023/10/31 04:59:54;;;;;;;;;3.33;2.33;;;;;;;;5137741;27;45579;-50
2023/10/31 05:02:25;;;;;;;;;3.00;2.33;;;;;;;;5140946;27;46315;-48
2023/10/31 05:04:51;;;;;;;;;3.00;3.00;;;;;;;;5140604;27;45445;-48
2023/10/31 05:07:19;;;;;;;;;3.00;3.00;;;;;;;;5140869;27;45900;-51
2023/10/31 05:09:44;;;;;;;;;2.00;2.00;;;;;;;;5138454;27;45439;-48
2023/10/31 05:12:09;;;;;;;;;4.33;3.00;;;;;;;;5139206;27;45273;-50
2023/10/31 05:14:34;;;;;;;;;4.33;3.00;;;;;;;;5135164;27;45462;-49
2023/10/31 05:16:59;;;;;;;;;2.00;2.00;;;;;;;;5130275;27;45285;-47
2023/10/31 05:19:25;;;;;;;;;4.33;2.67;;;;;;;;5121650;27;45496;-50
2023/10/31 05:21:50;;;;;;;;;4.33;3.00;;;;;;;;5130292;27;46136;-47
2023/10/31 05:24:16;;;;;;;;;3.00;3.00;;;;;;;;5139936;27;45285;-47
2023/10/31 05:26:42;;;;;;;;;2.00;2.00;;;;;;;;5122573;27;45543;-49
2023/10/31 05:29:08;;;;;;;;;3.00;3.00;;;;;;;;5135529;27;45309;-48
2023/10/31 05:31:33;;;;;;;;;3.00;3.00;;;;;;;;5137673;27;46422;-49
2023/10/31 05:33:58;;;;;;;;;3.00;3.00;;;;;;;;5135202;27;45415;-47
2023/10/31 05:36:24;;;;;;;;;4.67;3.67;;;;;;;;5139681;27;45539;-50
2023/10/31 05:38:50;;;;;;;;;2.00;2.00;;;;;;;;5116938;27;45358;-50
2023/10/31 05:41:15;;;;;;;;;5.00;4.00;;;;;;;;5139023;27;46269;-48
2023/10/31 05:43:41;;;;;;;;;2.00;2.00;;;;;;;;5119917;27;45546;-49
2023/10/31 05:46:06;;;;;;;;;1.33;1.33;;;;;;;;5123958;27;45807;-51
2023/10/31 05:48:31;;;;;;;;;3.00;3.00;;;;;;;;5132807;27;45730;-49
2023/10/31 05:50:56;;;;;;;;;5.00;2.00;;;;;;;;5121414;27;46682;-48
2023/10/31 05:53:22;;;;;;;;;4.00;3.00;;;;;;;;5115605;27;45340;-48
2023/10/31 05:55:47;;;;;;;;;2.67;2.67;;;;;;;;5143792;27;45745;-48
2023/10/31 05:58:12;;;;;;;;;3.00;3.00;;;;;;;;5143910;27;45280;-49
2023/10/31 06:00:37;;;;;;;;;4.00;4.00;;;;;;;;5143671;27;45506;-48
2023/10/31 06:03:02;;;;;;;;;5.00;3.00;;;;;;;;5143477;27;45502;-47
2023/10/31 06:05:27;;;;;;;;;5.00;3.33;;;;;;;;5142842;27;45242;-47
2023/10/31 06:07:53;;;;;;;;;3.33;3.33;;;;;;;;5142601;27;45320;-49
2023/10/31 06:10:18;;;;;;;;;4.67;3.00;;;;;;;;5124925;27;47040;-49
2023/10/31 06:12:43;;;;;;;;;4.00;4.00;;;;;;;;5142748;27;45267;-49
2023/10/31 06:15:09;;;;;;;;;6.00;4.00;;;;;;;;5140715;27;45382;-49
2023/10/31 06:17:34;;;;;;;;;2.50;2.50;;;;;;;;5143345;27;45457;-49
2023/10/31 06:19:59;;;;;;;;;4.00;3.00;;;;;;;;5121946;27;46350;-50
2023/10/31 06:22:25;;;;;;;;;0.67;0.00;;;;;;;;5142197;27;45435;-48
2023/10/31 06:24:50;;;;;;;;;3.67;2.00;;;;;;;;5143975;27;45520;-49
2023/10/31 06:27:15;;;;;;;;;4.00;4.00;;;;;;;;5143393;27;45472;-48
2023/10/31 06:29:40;;;;;;;;;2.00;2.00;;;;;;;;5140737;27;45978;-48
2023/10/31 06:32:05;;;;;;;;;6.33;2.67;;;;;;;;5142053;27;45238;-49
2023/10/31 06:34:31;;;;;;;;;5.00;1.00;;;;;;;;5140573;27;45355;-49
2023/10/31 06:36:56;;;;;;;;;3.33;3.33;;;;;;;;5142139;27;45249;-51
2023/10/31 06:39:22;;;;;;;;;2.33;2.33;;;;;;;;5140159;27;46303;-48
2023/10/31 06:41:47;;;;;;;;;1.00;1.00;;;;;;;;5139230;27;45496;-50
2023/10/31 06:44:12;;;;;;;;;2.33;2.33;;;;;;;;5140025;27;45221;-49
2023/10/31 06:46:38;;;;;;;;;4.00;4.00;;;;;;;;5141794;27;45330;-48
2023/10/31 06:49:03;;;;;;;;;4.00;4.00;;;;;;;;5127988;27;47193;-52
2023/10/31 06:51:28;;;;;;;;;2.00;2.00;;;;;;;;5143080;27;45206;-52
2023/10/31 06:53:53;;;;;;;;;4.00;3.00;;;;;;;;5122553;27;45386;-48
2023/10/31 06:56:19;;;;;;;;;6.67;3.00;;;;;;;;5139930;27;45304;-50
2023/10/31 06:58:44;;;;;;;;;4.00;2.00;;;;;;;;5130544;27;46177;-48
2023/10/31 07:01:11;;;;;;;;;1.00;1.00;;;;;;;;5128667;27;45447;-47
2023/10/31 07:03:36;;;;;;;;;1.00;1.00;;;;;;;;5136697;27;45311;-48
2023/10/31 07:06:01;;;;;;;;;2.00;2.00;;;;;;;;5117293;27;45486;-49
2023/10/31 07:08:26;;;;;;;;;2.00;2.00;;;;;;;;5145566;27;45266;-48
2023/10/31 07:10:51;;;;;;;;;1.33;1.33;;;;;;;;5128556;27;45286;-47
2023/10/31 07:13:17;;;;;;;;;3.00;3.00;;;;;;;;5134128;27;45335;-46
2023/10/31 07:15:42;;;;;;;;;1.00;1.00;;;;;;;;5132342;27;45640;-48
2023/10/31 07:18:07;;;;;;;;;3.00;1.00;;;;;;;;5132547;27;45506;-48
2023/10/31 07:20:33;;;;;;;;;4.67;3.00;;;;;;;;5135373;27;45316;-49
2023/10/31 07:22:58;;;;;;;;;1.67;1.67;;;;;;;;5151170;27;45275;-50
2023/10/31 07:25:23;;;;;;;;;3.00;2.00;;;;;;;;5133854;27;45391;-50
2023/10/31 07:27:48;;;;;;;;;2.00;2.00;;;;;;;;5142555;27;45497;-49
2023/10/31 07:30:14;;;;;;;;;4.00;2.00;;;;;;;;5141866;27;45442;-46
2023/10/31 07:32:39;;;;;;;;;1.33;1.33;;;;;;;;5132101;27;45674;-47
2023/10/31 07:35:04;;;;;;;;;1.00;1.00;;;;;;;;5108192;27;45436;-49
2023/10/31 07:37:30;;;;;;;;;3.00;3.00;;;;;;;;5133716;27;46272;-48
2023/10/31 07:39:55;;;;;;;;;3.00;1.00;;;;;;;;5132357;27;45280;-49
2023/10/31 07:42:20;;;;;;;;;4.67;2.67;;;;;;;;5134757;27;45371;-49
2023/10/31 07:44:45;;;;;;;;;2.00;2.00;;;;;;;;5134724;27;45256;-47
2023/10/31 07:47:10;;;;;;;;;2.00;2.00;;;;;;;;5138322;27;46200;-48
2023/10/31 07:49:35;;;;;;;;;3.33;1.33;;;;;;;;5137157;27;45344;-48
2023/10/31 07:52:01;;;;;;;;;2.00;2.00;;;;;;;;5141924;27;45431;-48
2023/10/31 07:54:26;;;;;;;;;2.00;2.00;;;;;;;;5139039;27;45140;-50
2023/10/31 07:56:52;;;;;;;;;2.00;2.00;;;;;;;;5141195;27;47142;-49
2023/10/31 07:59:17;;;;;;;;;2.00;2.00;;;;;;;;5141883;27;45249;-49
2023/10/31 08:01:42;;;;;;;;;3.00;3.00;;;;;;;;5132316;27;45397;-48
2023/10/31 08:04:07;;;;;;;;;2.00;1.67;;;;;;;;5121650;27;45488;-48
2023/10/31 08:06:33;;;;;;;;;4.00;2.00;;;;;;;;5136041;27;45578;-48
2023/10/31 08:08:58;;;;;;;;;2.00;2.00;;;;;;;;5141385;27;45399;-50
2023/10/31 08:11:24;;;;;;;;;5.00;2.00;;;;;;;;5128853;27;45439;-47
2023/10/31 08:13:49;;;;;;;;;2.67;1.00;;;;;;;;5127685;27;45409;-49
2023/10/31 08:16:20;;;;;;;;;2.67;2.00;;;;;;;;5112089;27;47250;-47
2023/10/31 08:18:46;;;;;;;;;2.00;2.00;;;;;;;;5133401;27;45560;-50
2023/10/31 08:21:12;;;;;;;;;1.67;1.67;;;;;;;;5124705;27;45332;-49
2023/10/31 08:23:37;;;;;;;;;2.67;1.00;;;;;;;;5151980;27;45858;-53
2023/10/31 08:26:02;;;;;;;;;3.67;1.00;;;;;;;;5127026;27;45579;-53
2023/10/31 08:28:28;;;;;;;;;2.33;2.33;;;;;;;;5141266;27;45382;-50
2023/10/31 08:30:53;;;;;;;;;3.33;3.00;;;;;;;;5128898;27;45299;-51
2023/10/31 08:33:18;;;;;;;;;1.67;0.33;;;;;;;;5142004;27;45292;-50
2023/10/31 08:35:44;;;;;;;;;3.00;3.00;;;;;;;;5129502;27;46594;-51
2023/10/31 08:38:09;;;;;;;;;2.67;2.00;;;;;;;;5107420;27;45263;-53
2023/10/31 08:40:34;;;;;;;;;3.00;3.00;;;;;;;;5118906;27;45521;-51
2023/10/31 08:43:00;;;;;;;;;2.00;1.33;;;;;;;;5134776;27;45561;-52
2023/10/31 08:45:26;;;;;;;;;2.00;2.00;;;;;;;;5123554;27;46545;-51
2023/10/31 08:47:51;;;;;;;;;2.33;2.33;;;;;;;;5141422;27;45359;-52
2023/10/31 08:50:16;;;;;;;;;2.00;2.00;;;;;;;;5111021;27;45359;-53
2023/10/31 08:52:42;;;;;;;;;7.67;2.00;;;;;;;;5134976;27;45506;-53
2023/10/31 08:55:07;;;;;;;;;2.67;1.00;;;;;;;;5122409;27;45459;-51
2023/10/31 08:57:33;;;;;;;;;1.33;1.33;;;;;;;;5140680;27;45367;-51
2023/10/31 08:59:58;;;;;;;;;2.00;1.00;;;;;;;;5141023;27;45468;-50
2023/10/31 09:02:24;;;;;;;;;2.00;2.00;;;;;;;;5120816;27;45353;-51
2023/10/31 09:04:49;;;;;;;;;1.33;1.00;;;;;;;;5130331;27;45585;-52
2023/10/31 09:07:14;;;;;;;;;2.00;2.00;;;;;;;;5117932;27;45577;-50
2023/10/31 09:09:39;;;;;;;;;2.00;2.00;;;;;;;;5133005;27;45507;-53
2023/10/31 09:12:05;;;;;;;;;2.00;1.00;;;;;;;;5108377;27;45650;-53
2023/10/31 09:14:30;;;;;;;;;1.67;1.67;;;;;;;;5119213;27;48114;-51
2023/10/31 09:16:56;;;;;;;;;1.33;1.33;;;;;;;;5130601;27;45286;-52
2023/10/31 09:19:21;;;;;;;;;1.00;1.00;;;;;;;;5136745;27;45171;-51
2023/10/31 09:21:46;;;;;;;;;2.00;2.00;;;;;;;;5137860;27;45680;-53
2023/10/31 09:24:11;;;;;;;;;2.00;2.00;;;;;;;;5135648;27;46133;-52
2023/10/31 09:26:37;;;;;;;;;2.00;2.00;;;;;;;;5139613;27;45285;-50
2023/10/31 09:29:03;;;;;;;;;3.00;3.00;;;;;;;;5142397;27;45285;-53
2023/10/31 09:31:28;;;;;;;;;2.67;2.67;;;;;;;;5104636;27;45294;-52
2023/10/31 09:33:53;;;;;;;;;3.00;3.00;;;;;;;;5138106;27;45677;-52
2023/10/31 09:36:19;;;;;;;;;2.00;2.00;;;;;;;;5140229;27;45547;-53
2023/10/31 09:38:44;;;;;;;;;5.33;2.00;;;;;;;;5140104;27;45633;-51
2023/10/31 09:41:11;;;;;;;;;1.33;1.33;;;;;;;;5140824;27;45383;-51
2023/10/31 09:43:37;;;;;;;;;3.00;3.00;;;;;;;;5139121;27;45884;-53
2023/10/31 09:46:03;;;;;;;;;8.67;2.67;;;;;;;;5119057;27;45350;-52
2023/10/31 09:48:28;;;;;;;;;3.00;2.33;;;;;;;;5138852;27;45407;-53
2023/10/31 09:50:53;;;;;;;;;2.00;2.00;;;;;;;;5124847;27;45574;-50
2023/10/31 09:53:19;;;;;;;;;1.00;1.00;;;;;;;;5142743;27;46457;-53
2023/10/31 09:55:45;;;;;;;;;3.67;1.33;;;;;;;;5140228;27;45276;-53
2023/10/31 09:58:11;;;;;;;;;1.67;1.67;;;;;;;;5129575;27;45335;-50
2023/10/31 10:00:40;;;;;;;;;2.00;1.00;;;;;;;;5124899;27;45638;-53
2023/10/31 10:03:08;;;;;;;;;1.00;1.00;;;;;;;;5112257;27;47012;-53
2023/10/31 10:05:34;;;;;;;;;3.33;2.00;;;;;;;;5122186;27;45532;-52
2023/10/31 10:08:00;;;;;;;;;4.67;2.00;;;;;;;;5141712;27;45248;-51
2023/10/31 10:10:25;;;;;;;;;1.67;1.67;;;;;;;;5143835;27;45288;-51
2023/10/31 10:12:54;;;;;;;;;3.00;3.00;;;;;;;;5127343;27;47034;-53
2023/10/31 10:15:19;;;;;;;;;1.00;1.00;;;;;;;;5131857;27;46217;-51
2023/10/31 10:17:48;;;;;;;;;1.33;1.33;;;;;;;;5137462;27;45592;-52
2023/10/31 10:20:13;;;;;;;;;1.00;0.67;;;;;;;;5142303;27;45625;-51
2023/10/31 10:22:42;;;;;;;;;0.33;0.33;;;;;;;;5137347;27;45369;-52
2023/10/31 10:25:08;;;;;;;;;2.00;1.00;;;;;;;;5141357;27;45497;-54
2023/10/31 10:27:33;;;;;;;;;0.33;0.33;;;;;;;;5116194;27;45496;-54
2023/10/31 10:29:58;;;;;;;;;2.67;2.67;;;;;;;;5131581;27;45321;-54
2023/10/31 10:32:23;;;;;;;;;2.67;1.67;;;;;;;;5133301;27;46347;-54
2023/10/31 10:34:49;;;;;;;;;1.00;1.00;;;;;;;;5137812;27;45393;-55
2023/10/31 10:37:14;;;;;;;;;1.00;1.00;;;;;;;;5131409;27;45468;-55
2023/10/31 10:39:40;;;;;;;;;1.00;1.00;;;;;;;;5109155;27;45396;-54
2023/10/31 10:42:09;;;;;;;;;2.00;2.00;;;;;;;;5142799;27;45439;-55
2023/10/31 10:44:35;;;;;;;;;1.67;1.00;;;;;;;;5135137;27;46501;-54
2023/10/31 10:47:06;;;;;;;;;2.00;1.00;;;;;;;;5136073;27;45333;-54
2023/10/31 10:49:36;;;;;;;;;2.00;1.00;;;;;;;;5106701;27;45282;-55
2023/10/31 10:52:05;;;;;;;;;1.50;1.50;;;;;;;;5111323;27;47611;-55
2023/10/31 10:54:42;;;;;;;;;0.25;0.25;;;;;;;;5124464;27;45466;-54
2023/10/31 10:57:16;;;;;;;;;1.00;1.00;;;;;;;;5124454;27;45333;-54
2023/10/31 10:59:42;;;;;;;;;1.00;1.00;;;;;;;;5142692;27;45521;-53
2023/10/31 11:02:08;;;;;;;;;2.33;1.00;;;;;;;;5123583;27;47446;-53
2023/10/31 11:04:34;;;;;;;;;1.00;1.00;;;;;;;;5143120;27;45363;-53
2023/10/31 11:07:00;;;;;;;;;0.00;0.00;;;;;;;;5142225;27;45396;-53
2023/10/31 11:09:25;;;;;;;;;1.75;1.75;;;;;;;;5124006;27;45540;-54
2023/10/31 11:11:51;;;;;;;;;1.00;1.00;;;;;;;;5143485;27;46349;-55
2023/10/31 11:14:17;;;;;;;;;2.00;1.67;;;;;;;;5123019;27;46453;-54
2023/10/31 11:16:48;;;;;;;;;0.00;0.00;;;;;;;;5138176;27;45306;-53
2023/10/31 11:19:15;;;;;;;;;2.25;1.00;;;;;;;;5136653;27;45531;-54
2023/10/31 11:21:55;;;;;;;;;1.67;1.67;;;;;;;;5141755;27;45981;-53
2023/10/31 11:24:23;;;;;;;;;1.00;1.00;;;;;;;;5139945;27;45464;-53
2023/10/31 11:26:52;;;;;;;;;2.25;1.00;;;;;;;;5141097;27;45455;-51
2023/10/31 11:29:18;;;;;;;;;0.25;0.25;;;;;;;;5140107;27;45685;-54
2023/10/31 11:31:43;;;;;;;;;1.00;1.00;;;;;;;;5141004;27;45336;-54
2023/10/31 11:34:08;;;;;;;;;2.00;0.67;;;;;;;;5141112;27;45154;-54
2023/10/31 11:36:35;;;;;;;;;1.33;1.00;;;;;;;;5142498;27;45359;-53
2023/10/31 11:39:13;;;;;;;;;2.00;2.00;;;;;;;;5140750;27;45441;-54
2023/10/31 11:41:39;;;;;;;;;2.67;1.00;;;;;;;;5141214;27;45427;-54
2023/10/31 11:44:04;;;;;;;;;2.33;1.00;;;;;;;;5142787;27;45325;-53
2023/10/31 11:46:29;;;;;;;;;2.00;1.00;;;;;;;;5142354;27;45335;-54
2023/10/31 11:48:55;;;;;;;;;2.00;1.00;;;;;;;;5141895;27;45361;-53
2023/10/31 11:51:21;;;;;;;;;2.00;1.00;;;;;;;;5139308;27;46335;-54
2023/10/31 11:53:47;;;;;;;;;0.75;0.75;;;;;;;;5143562;27;45194;-51
2023/10/31 11:56:13;;;;;;;;;1.00;1.00;;;;;;;;5139783;27;45328;-54
2023/10/31 11:58:38;;;;;;;;;0.25;0.25;;;;;;;;5132755;27;45315;-54
2023/10/31 12:01:04;;;;;;;;;1.00;1.00;;;;;;;;5124402;27;46198;-53
2023/10/31 12:03:43;;;;;;;;;1.00;1.00;;;;;;;;5123510;27;45298;-53
2023/10/31 12:06:09;;;;;;;;;2.00;1.50;;;;;;;;5126195;27;45693;-53
2023/10/31 12:08:38;;;;;;;;;2.00;2.00;;;;;;;;5133500;27;45450;-52
2023/10/31 12:11:17;;;;;;;;;1.00;1.00;;;;;;;;5140883;27;46636;-53
2023/10/31 12:13:51;;;;;;;;;1.00;1.00;;;;;;;;5128934;27;45258;-54
2023/10/31 12:16:16;;;;;;;;;2.00;0.00;;;;;;;;5114818;27;45775;-54
2023/10/31 12:18:41;;;;;;;;;0.33;0.33;;;;;;;;5117376;27;45372;-54
2023/10/31 12:21:08;;;;;;;;;2.00;0.00;;;;;;;;5130735;27;45367;-54
2023/10/31 12:23:33;;;;;;;;;0.00;0.00;;;;;;;;5142215;27;45443;-54
2023/10/31 12:25:59;;;;;;;;;1.00;1.00;;;;;;;;5112882;27;45445;-52
2023/10/31 12:28:24;;;;;;;;;1.00;1.00;;;;;;;;5140718;27;45343;-54
2023/10/31 12:30:51;;;;;;;;;1.00;1.00;;;;;;;;5111924;27;46253;-54
2023/10/31 12:33:17;;;;;;;;;2.75;1.25;;;;;;;;5101748;27;45389;-54
2023/10/31 12:35:43;;;;;;;;;1.00;1.00;;;;;;;;5102279;27;45384;-54
2023/10/31 12:38:12;;;;;;;;;0.75;0.75;;;;;;;;5115323;27;45351;-55
2023/10/31 12:40:37;;;;;;;;;1.00;1.00;;;;;;;;5119759;27;46157;-54
2023/10/31 12:43:03;;;;;;;;;2.00;1.00;;;;;;;;5108825;27;45316;-53
2023/10/31 12:45:28;;;;;;;;;2.00;1.00;;;;;;;;5103033;27;45380;-54
2023/10/31 12:48:04;;;;;;;;;1.00;1.00;;;;;;;;5115336;27;45415;-54
2023/10/31 12:50:30;;;;;;;;;2.75;2.00;;;;;;;;5103619;27;45317;-54
2023/10/31 12:52:57;;;;;;;;;2.00;1.00;;;;;;;;5103203;27;45437;-53
2023/10/31 12:55:23;;;;;;;;;0.50;0.50;;;;;;;;5112545;27;45415;-54
2023/10/31 12:57:49;;;;;;;;;2.00;0.25;;;;;;;;5110979;27;45519;-54
2023/10/31 13:00:15;;;;;;;;;1.50;1.50;;;;;;;;5109634;27;45290;-53
2023/10/31 13:02:40;;;;;;;;;1.00;1.00;;;;;;;;5118863;27;45743;-53
2023/10/31 13:05:12;;;;;;;;;0.25;0.25;;;;;;;;5113135;27;45430;-54
2023/10/31 13:07:38;;;;;;;;;0.75;0.75;;;;;;;;5116586;27;44783;-51
2023/10/31 13:10:04;;;;;;;;;1.50;1.00;;;;;;;;5118978;27;45326;-53
2023/10/31 13:12:30;;;;;;;;;1.50;1.00;;;;;;;;5114715;27;45305;-54
2023/10/31 13:14:55;;;;;;;;;0.00;0.00;;;;;;;;5103678;27;45440;-53
2023/10/31 13:17:20;;;;;;;;;0.00;0.00;;;;;;;;5118004;27;45542;-53
2023/10/31 13:19:45;;;;;;;;;0.50;0.50;;;;;;;;5119849;27;45449;-54
2023/10/31 13:22:11;;;;;;;;;1.00;1.00;;;;;;;;5118147;27;45381;-52
2023/10/31 13:24:36;;;;;;;;;2.25;0.50;;;;;;;;5111715;27;45410;-53
2023/10/31 13:27:02;;;;;;;;;3.00;1.00;;;;;;;;5114053;27;45486;-54
2023/10/31 13:29:28;;;;;;;;;0.00;0.00;;;;;;;;5102352;27;45545;-53
2023/10/31 13:31:53;;;;;;;;;0.00;0.00;;;;;;;;5115280;27;45278;-52
2023/10/31 13:34:18;;;;;;;;;0.75;0.75;;;;;;;;5119730;27;45258;-54
2023/10/31 13:36:44;;;;;;;;;0.25;0.25;;;;;;;;5125392;27;45439;-54
2023/10/31 13:39:09;;;;;;;;;1.75;1.00;;;;;;;;5110878;27;47232;-53
2023/10/31 13:41:34;;;;;;;;;2.00;1.00;;;;;;;;5120606;27;45315;-54
2023/10/31 13:44:00;;;;;;;;;0.00;0.00;;;;;;;;5121737;27;45296;-54
2023/10/31 13:46:25;;;;;;;;;3.00;1.00;;;;;;;;5124276;27;45234;-54
2023/10/31 13:48:50;;;;;;;;;2.67;2.67;;;;;;;;5129205;27;45360;-53
2023/10/31 13:51:16;;;;;;;;;1.00;1.00;;;;;;;;5138257;27;45455;-54
2023/10/31 13:53:41;;;;;;;;;0.00;0.00;;;;;;;;5120332;27;45190;-53
2023/10/31 13:56:06;;;;;;;;;3.00;0.25;;;;;;;;5135202;27;45466;-53
2023/10/31 13:58:32;;;;;;;;;1.50;0.50;;;;;;;;5130899;27;45365;-53
2023/10/31 14:00:57;;;;;;;;;0.50;0.50;;;;;;;;5121467;27;45442;-54
2023/10/31 14:03:22;;;;;;;;;0.25;0.25;;;;;;;;5110425;27;45632;-55
2023/10/31 14:05:47;;;;;;;;;2.33;2.00;;;;;;;;5110755;27;45409;-52
2023/10/31 14:08:13;;;;;;;;;1.00;1.00;;;;;;;;5123363;27;46546;-53
2023/10/31 14:10:39;;;;;;;;;1.00;1.00;;;;;;;;5124920;27;45332;-53
2023/10/31 14:13:04;;;;;;;;;0.00;0.00;;;;;;;;5122307;27;45566;-53
2023/10/31 14:15:30;;;;;;;;;1.00;0.25;;;;;;;;5128972;27;45472;-53
2023/10/31 14:17:55;;;;;;;;;1.00;1.00;;;;;;;;5143330;27;46437;-54
2023/10/31 14:20:20;;;;;;;;;1.67;1.67;;;;;;;;5142184;27;45344;-54
2023/10/31 14:22:49;;;;;;;;;1.50;0.50;;;;;;;;5125296;27;45432;-54
2023/10/31 14:25:15;;;;;;;;;1.00;1.00;;;;;;;;5123880;27;45514;-54
2023/10/31 14:27:40;;;;;;;;;2.00;1.00;;;;;;;;5132799;27;46218;-54
2023/10/31 14:30:06;;;;;;;;;1.00;1.00;;;;;;;;5140765;27;45292;-54
2023/10/31 14:32:32;;;;;;;;;0.50;0.50;;;;;;;;5126234;27;45460;-54
2023/10/31 14:34:57;;;;;;;;;2.00;1.00;;;;;;;;5126545;27;45204;-54